sensor_id;sensor_type;location;lat;lon;timestamp;pressure;altitude;pressure_sealevel;temperature;humidity
33155;BME280;19511;42.682;23.332;2023-03-22T00:00:53;94831.22;;;8.96;100.00
33155;BME280;19511;42.682;23.332;2023-03-22T00:03:22;94832.84;;;8.90;100.00
33155;BME280;19511;42.682;23.332;2023-03-22T00:05:47;94830.97;;;8.80;100.00
33155;BME280;19511;42.682;23.332;2023-03-22T00:08:13;94823.91;;;8.72;100.00
33155;BME280;19511;42.682;23.332;2023-03-22T00:10:39;94832.16;;;8.75;100.00
33155;BME280;19511;42.682;23.332;2023-03-22T00:13:07;94834.19;;;8.71;100.00
33155;BME280;19511;42.682;23.332;2023-03-22T00:15:33;94833.31;;;8.81;100.00
33155;BME280;19511;42.682;23.332;2023-03-22T00:17:58;94829.66;;;8.92;100.00
33155;BME280;19511;42.682;23.332;2023-03-22T00:20:25;94822.16;;;8.92;100.00
33155;BME280;19511;42.682;23.332;2023-03-22T00:22:50;94837.50;;;8.97;100.00
33155;BME280;19511;42.682;23.332;2023-03-22T00:25:17;94833.63;;;8.91;100.00
33155;BME280;19511;42.682;23.332;2023-03-22T00:27:43;94746.94;;;8.39;100.00
33155;BME280;19511;42.682;23.332;2023-03-22T00:30:10;94826.09;;;8.95;100.00
33155;BME280;19511;42.682;23.332;2023-03-22T00:32:36;94822.53;;;8.98;100.00
33155;BME280;19511;42.682;23.332;2023-03-22T00:35:09;94820.47;;;9.06;100.00
33155;BME280;19511;42.682;23.332;2023-03-22T00:37:36;94819.63;;;9.12;100.00
33155;BME280;19511;42.682;23.332;2023-03-22T00:40:08;94748.44;;;8.58;100.00
33155;BME280;19511;42.682;23.332;2023-03-22T00:42:40;94816.16;;;9.05;100.00
33155;BME280;19511;42.682;23.332;2023-03-22T00:45:07;94815.69;;;9.13;100.00
33155;BME280;19511;42.682;23.332;2023-03-22T00:47:34;94799.31;;;8.92;100.00
33155;BME280;19511;42.682;23.332;2023-03-22T00:49:59;94793.09;;;8.84;100.00
33155;BME280;19511;42.682;23.332;2023-03-22T00:52:28;94818.97;;;8.97;100.00
33155;BME280;19511;42.682;23.332;2023-03-22T00:54:54;94791.50;;;8.87;100.00
33155;BME280;19511;42.682;23.332;2023-03-22T00:57:20;94674.13;;;7.95;100.00
33155;BME280;19511;42.682;23.332;2023-03-22T00:59:50;94805.69;;;8.85;100.00
33155;BME280;19511;42.682;23.332;2023-03-22T01:02:18;94750.09;;;8.41;100.00
33155;BME280;19511;42.682;23.332;2023-03-22T01:04:43;94811.25;;;8.81;100.00
33155;BME280;19511;42.682;23.332;2023-03-22T01:07:13;94805.78;;;8.74;100.00
33155;BME280;19511;42.682;23.332;2023-03-22T01:09:43;94797.16;;;8.69;100.00
33155;BME280;19511;42.682;23.332;2023-03-22T01:12:12;94786.97;;;8.62;100.00
33155;BME280;19511;42.682;23.332;2023-03-22T01:14:39;94786.16;;;8.65;100.00
33155;BME280;19511;42.682;23.332;2023-03-22T01:17:05;94796.34;;;8.72;100.00
33155;BME280;19511;42.682;23.332;2023-03-22T01:19:32;94764.22;;;8.50;100.00
33155;BME280;19511;42.682;23.332;2023-03-22T01:21:57;94786.50;;;8.71;100.00
33155;BME280;19511;42.682;23.332;2023-03-22T01:24:24;94723.81;;;8.29;100.00
33155;BME280;19511;42.682;23.332;2023-03-22T01:26:49;94754.84;;;8.37;100.00
33155;BME280;19511;42.682;23.332;2023-03-22T01:29:15;94789.72;;;8.62;100.00
33155;BME280;19511;42.682;23.332;2023-03-22T01:31:41;94787.41;;;8.57;100.00
33155;BME280;19511;42.682;23.332;2023-03-22T01:34:06;94780.31;;;8.56;100.00
33155;BME280;19511;42.682;23.332;2023-03-22T01:36:32;94786.59;;;8.60;100.00
33155;BME280;19511;42.682;23.332;2023-03-22T01:38:57;94798.31;;;8.75;100.00
33155;BME280;19511;42.682;23.332;2023-03-22T01:41:23;94705.78;;;8.17;100.00
33155;BME280;19511;42.682;23.332;2023-03-22T01:46:41;94713.97;;;8.32;100.00
33155;BME280;19511;42.682;23.332;2023-03-22T01:49:20;94790.75;;;8.82;100.00
33155;BME280;19511;42.682;23.332;2023-03-22T01:51:51;94788.34;;;8.85;100.00
33155;BME280;19511;42.682;23.332;2023-03-22T01:54:38;94789.09;;;8.89;100.00
33155;BME280;19511;42.682;23.332;2023-03-22T01:57:07;94766.38;;;8.77;100.00
33155;BME280;19511;42.682;23.332;2023-03-22T01:59:33;94785.56;;;8.88;100.00
33155;BME280;19511;42.682;23.332;2023-03-22T02:01:59;94771.94;;;8.70;100.00
33155;BME280;19511;42.682;23.332;2023-03-22T02:04:30;94766.03;;;8.68;100.00
33155;BME280;19511;42.682;23.332;2023-03-22T02:07:01;94786.03;;;8.79;100.00
33155;BME280;19511;42.682;23.332;2023-03-22T02:09:37;94784.91;;;8.73;100.00
33155;BME280;19511;42.682;23.332;2023-03-22T02:24:08;94788.06;;;8.72;100.00
33155;BME280;19511;42.682;23.332;2023-03-22T02:40:53;94801.16;;;8.60;100.00
33155;BME280;19511;42.682;23.332;2023-03-22T02:43:37;94807.94;;;8.52;100.00
33155;BME280;19511;42.682;23.332;2023-03-22T02:46:16;94691.84;;;7.87;100.00
33155;BME280;19511;42.682;23.332;2023-03-22T02:48:57;94729.09;;;8.09;100.00
33155;BME280;19511;42.682;23.332;2023-03-22T02:51:33;94800.44;;;8.53;100.00
33155;BME280;19511;42.682;23.332;2023-03-22T02:54:05;94805.13;;;8.56;100.00
33155;BME280;19511;42.682;23.332;2023-03-22T02:56:39;94789.78;;;8.55;100.00
33155;BME280;19511;42.682;23.332;2023-03-22T02:59:11;94804.31;;;8.62;100.00
33155;BME280;19511;42.682;23.332;2023-03-22T03:02:10;94810.59;;;8.63;100.00
33155;BME280;19511;42.682;23.332;2023-03-22T03:04:42;94807.03;;;8.66;100.00
33155;BME280;19511;42.682;23.332;2023-03-22T03:07:14;94804.22;;;8.70;100.00
33155;BME280;19511;42.682;23.332;2023-03-22T03:09:43;94794.47;;;8.61;100.00
33155;BME280;19511;42.682;23.332;2023-03-22T03:12:21;94710.25;;;8.00;100.00
33155;BME280;19511;42.682;23.332;2023-03-22T03:14:49;94753.38;;;8.25;100.00
33155;BME280;19511;42.682;23.332;2023-03-22T03:22:48;94805.94;;;8.53;100.00
33155;BME280;19511;42.682;23.332;2023-03-22T03:25:33;94813.00;;;8.61;100.00
33155;BME280;19511;42.682;23.332;2023-03-22T03:28:16;94820.88;;;8.59;100.00
33155;BME280;19511;42.682;23.332;2023-03-22T03:31:02;94806.78;;;8.46;100.00
33155;BME280;19511;42.682;23.332;2023-03-22T03:33:37;94727.97;;;7.99;100.00
33155;BME280;19511;42.682;23.332;2023-03-22T03:36:11;94791.91;;;8.29;100.00
33155;BME280;19511;42.682;23.332;2023-03-22T03:38:42;94811.41;;;8.60;100.00
33155;BME280;19511;42.682;23.332;2023-03-22T03:41:17;94829.53;;;8.61;100.00
33155;BME280;19511;42.682;23.332;2023-03-22T03:43:44;94815.78;;;8.57;100.00
33155;BME280;19511;42.682;23.332;2023-03-22T03:46:16;94817.69;;;8.64;100.00
33155;BME280;19511;42.682;23.332;2023-03-22T03:48:49;94816.47;;;8.69;100.00
33155;BME280;19511;42.682;23.332;2023-03-22T03:51:17;94804.72;;;8.61;100.00
33155;BME280;19511;42.682;23.332;2023-03-22T03:53:48;94819.56;;;8.74;100.00
33155;BME280;19511;42.682;23.332;2023-03-22T03:56:18;94712.56;;;8.06;100.00
33155;BME280;19511;42.682;23.332;2023-03-22T03:58:49;94807.06;;;8.62;100.00
33155;BME280;19511;42.682;23.332;2023-03-22T04:01:15;94749.06;;;8.21;100.00
33155;BME280;19511;42.682;23.332;2023-03-22T04:03:43;94825.91;;;8.71;100.00
33155;BME280;19511;42.682;23.332;2023-03-22T04:06:14;94805.47;;;8.65;100.00
33155;BME280;19511;42.682;23.332;2023-03-22T04:08:42;94728.34;;;8.05;100.00
33155;BME280;19511;42.682;23.332;2023-03-22T04:11:09;94817.69;;;8.60;100.00
33155;BME280;19511;42.682;23.332;2023-03-22T04:13:35;94822.41;;;8.63;100.00
33155;BME280;19511;42.682;23.332;2023-03-22T04:16:04;94838.88;;;8.71;100.00
33155;BME280;19511;42.682;23.332;2023-03-22T04:18:30;94758.13;;;8.17;100.00
33155;BME280;19511;42.682;23.332;2023-03-22T04:20:56;94823.16;;;8.68;100.00
33155;BME280;19511;42.682;23.332;2023-03-22T04:23:24;94833.34;;;8.74;100.00
33155;BME280;19511;42.682;23.332;2023-03-22T04:25:50;94817.34;;;8.58;100.00
33155;BME280;19511;42.682;23.332;2023-03-22T04:28:16;94794.91;;;8.53;100.00
33155;BME280;19511;42.682;23.332;2023-03-22T04:30:44;94830.22;;;8.72;100.00
33155;BME280;19511;42.682;23.332;2023-03-22T04:33:09;94843.19;;;8.75;100.00
33155;BME280;19511;42.682;23.332;2023-03-22T04:35:37;94827.97;;;8.60;100.00
33155;BME280;19511;42.682;23.332;2023-03-22T04:38:02;94846.81;;;8.65;100.00
33155;BME280;19511;42.682;23.332;2023-03-22T04:40:28;94838.16;;;8.63;100.00
33155;BME280;19511;42.682;23.332;2023-03-22T04:42:59;94832.34;;;8.54;100.00
33155;BME280;19511;42.682;23.332;2023-03-22T04:45:31;94838.16;;;8.63;100.00
33155;BME280;19511;42.682;23.332;2023-03-22T04:48:01;94831.16;;;8.55;100.00
33155;BME280;19511;42.682;23.332;2023-03-22T04:50:27;94850.00;;;8.60;100.00
33155;BME280;19511;42.682;23.332;2023-03-22T04:52:53;94848.81;;;8.61;100.00
33155;BME280;19511;42.682;23.332;2023-03-22T04:55:19;94857.44;;;8.66;100.00
33155;BME280;19511;42.682;23.332;2023-03-22T04:57:46;94860.94;;;8.71;100.00
33155;BME280;19511;42.682;23.332;2023-03-22T05:00:18;94862.66;;;8.54;100.00
33155;BME280;19511;42.682;23.332;2023-03-22T05:02:47;94842.63;;;8.42;100.00
33155;BME280;19511;42.682;23.332;2023-03-22T05:05:13;94774.78;;;7.96;100.00
33155;BME280;19511;42.682;23.332;2023-03-22T05:07:39;94867.34;;;8.57;100.00
33155;BME280;19511;42.682;23.332;2023-03-22T05:10:08;94853.25;;;8.47;100.00
33155;BME280;19511;42.682;23.332;2023-03-22T05:12:34;94873.69;;;8.50;100.00
33155;BME280;19511;42.682;23.332;2023-03-22T05:14:59;94869.75;;;8.44;100.00
33155;BME280;19511;42.682;23.332;2023-03-22T05:17:29;94867.41;;;8.49;100.00
33155;BME280;19511;42.682;23.332;2023-03-22T05:19:57;94779.53;;;7.92;100.00
33155;BME280;19511;42.682;23.332;2023-03-22T05:22:23;94853.63;;;8.49;100.00
33155;BME280;19511;42.682;23.332;2023-03-22T05:24:48;94868.50;;;8.59;100.00
33155;BME280;19511;42.682;23.332;2023-03-22T05:27:14;94795.19;;;8.09;100.00
33155;BME280;19511;42.682;23.332;2023-03-22T05:29:39;94887.72;;;8.77;100.00
33155;BME280;19511;42.682;23.332;2023-03-22T05:32:10;94878.28;;;8.75;100.00
33155;BME280;19511;42.682;23.332;2023-03-22T05:34:35;94888.06;;;8.79;100.00
33155;BME280;19511;42.682;23.332;2023-03-22T05:37:02;94887.75;;;8.70;100.00
33155;BME280;19511;42.682;23.332;2023-03-22T05:39:28;94794.44;;;8.05;100.00
33155;BME280;19511;42.682;23.332;2023-03-22T05:41:53;94890.53;;;8.66;100.00
33155;BME280;19511;42.682;23.332;2023-03-22T05:44:19;94883.84;;;8.64;100.00
33155;BME280;19511;42.682;23.332;2023-03-22T05:46:45;94887.72;;;8.77;100.00
33155;BME280;19511;42.682;23.332;2023-03-22T05:49:15;94896.34;;;8.79;100.00
33155;BME280;19511;42.682;23.332;2023-03-22T05:51:44;94877.50;;;8.67;100.00
33155;BME280;19511;42.682;23.332;2023-03-22T05:54:09;94897.16;;;8.80;100.00
33155;BME280;19511;42.682;23.332;2023-03-22T05:56:35;94886.16;;;8.69;100.00
33155;BME280;19511;42.682;23.332;2023-03-22T05:59:02;94900.72;;;8.73;100.00
33155;BME280;19511;42.682;23.332;2023-03-22T06:01:34;94896.78;;;8.74;100.00
33155;BME280;19511;42.682;23.332;2023-03-22T06:04:00;94903.44;;;8.80;100.00
33155;BME280;19511;42.682;23.332;2023-03-22T06:06:26;94890.09;;;8.72;100.00
33155;BME280;19511;42.682;23.332;2023-03-22T06:08:52;94908.13;;;8.83;100.00
33155;BME280;19511;42.682;23.332;2023-03-22T06:11:18;94909.66;;;8.92;100.00
33155;BME280;19511;42.682;23.332;2023-03-22T06:13:43;94914.41;;;8.88;100.00
33155;BME280;19511;42.682;23.332;2023-03-22T06:16:09;94908.13;;;8.83;100.00
33155;BME280;19511;42.682;23.332;2023-03-22T06:18:35;94907.75;;;8.81;100.00
33155;BME280;19511;42.682;23.332;2023-03-22T06:21:00;94825.38;;;8.27;100.00
33155;BME280;19511;42.682;23.332;2023-03-22T06:23:26;94912.47;;;8.81;100.00
33155;BME280;19511;42.682;23.332;2023-03-22T06:25:52;94834.47;;;8.24;100.00
33155;BME280;19511;42.682;23.332;2023-03-22T06:28:18;94915.66;;;8.79;100.00
33155;BME280;19511;42.682;23.332;2023-03-22T06:30:43;94890.13;;;8.68;100.00
33155;BME280;19511;42.682;23.332;2023-03-22T06:33:08;94917.19;;;8.88;100.00
33155;BME280;19511;42.682;23.332;2023-03-22T06:35:34;94926.22;;;8.88;100.00
33155;BME280;19511;42.682;23.332;2023-03-22T06:38:00;94924.59;;;8.94;100.00
33155;BME280;19511;42.682;23.332;2023-03-22T06:40:26;94904.59;;;8.83;100.00
33155;BME280;19511;42.682;23.332;2023-03-22T06:42:52;94934.00;;;9.04;100.00
33155;BME280;19511;42.682;23.332;2023-03-22T06:45:19;94937.13;;;9.06;100.00
33155;BME280;19511;42.682;23.332;2023-03-22T06:47:45;94915.88;;;9.03;100.00
33155;BME280;19511;42.682;23.332;2023-03-22T06:50:15;94835.03;;;8.61;100.00
33155;BME280;19511;42.682;23.332;2023-03-22T06:52:40;94937.75;;;9.28;100.00
33155;BME280;19511;42.682;23.332;2023-03-22T06:55:06;94933.00;;;9.29;100.00
33155;BME280;19511;42.682;23.332;2023-03-22T06:57:36;94936.19;;;9.27;100.00
33155;BME280;19511;42.682;23.332;2023-03-22T07:00:01;94919.66;;;9.24;100.00
33155;BME280;19511;42.682;23.332;2023-03-22T07:02:29;94937.66;;;9.39;100.00
33155;BME280;19511;42.682;23.332;2023-03-22T07:04:57;94936.91;;;9.35;100.00
33155;BME280;19511;42.682;23.332;2023-03-22T07:07:23;94951.81;;;9.45;100.00
33155;BME280;19511;42.682;23.332;2023-03-22T07:09:48;94938.75;;;9.49;100.00
33155;BME280;19511;42.682;23.332;2023-03-22T07:12:14;94930.47;;;9.49;100.00
33155;BME280;19511;42.682;23.332;2023-03-22T07:14:43;94787.84;;;8.52;100.00
33155;BME280;19511;42.682;23.332;2023-03-22T07:17:08;94939.09;;;9.55;100.00
33155;BME280;19511;42.682;23.332;2023-03-22T07:19:38;94946.19;;;9.56;100.00
33155;BME280;19511;42.682;23.332;2023-03-22T07:22:05;94947.38;;;9.55;100.00
33155;BME280;19511;42.682;23.332;2023-03-22T07:24:30;94960.44;;;9.51;100.00
33155;BME280;19511;42.682;23.332;2023-03-22T07:26:56;94875.69;;;9.02;100.00
33155;BME280;19511;42.682;23.332;2023-03-22T07:29:21;94959.50;;;9.68;100.00
33155;BME280;19511;42.682;23.332;2023-03-22T07:31:49;94961.09;;;9.66;100.00
33155;BME280;19511;42.682;23.332;2023-03-22T07:34:15;94958.72;;;9.68;100.00
33155;BME280;19511;42.682;23.332;2023-03-22T07:36:41;94967.78;;;9.68;100.00
33155;BME280;19511;42.682;23.332;2023-03-22T07:39:06;94886.59;;;9.17;100.00
33155;BME280;19511;42.682;23.332;2023-03-22T07:41:32;94882.66;;;9.14;100.00
33155;BME280;19511;42.682;23.332;2023-03-22T07:43:57;94901.06;;;9.28;100.00
33155;BME280;19511;42.682;23.332;2023-03-22T07:46:23;94973.22;;;9.79;100.00
33155;BME280;19511;42.682;23.332;2023-03-22T07:48:48;94968.59;;;9.65;100.00
33155;BME280;19511;42.682;23.332;2023-03-22T07:51:14;94972.09;;;9.69;100.00
33155;BME280;19511;42.682;23.332;2023-03-22T07:53:39;94980.09;;;9.60;100.00
33155;BME280;19511;42.682;23.332;2023-03-22T07:56:05;94969.50;;;9.51;100.00
33155;BME280;19511;42.682;23.332;2023-03-22T07:58:30;94960.88;;;9.45;100.00
33155;BME280;19511;42.682;23.332;2023-03-22T08:00:56;94978.13;;;9.57;100.00
33155;BME280;19511;42.682;23.332;2023-03-22T08:03:22;94983.13;;;9.73;100.00
33155;BME280;19511;42.682;23.332;2023-03-22T08:05:48;94981.09;;;9.80;100.00
33155;BME280;19511;42.682;23.332;2023-03-22T08:08:13;94979.13;;;9.77;100.00
33155;BME280;19511;42.682;23.332;2023-03-22T08:10:39;94890.59;;;9.12;100.00
33155;BME280;19511;42.682;23.332;2023-03-22T08:13:05;94901.53;;;9.19;100.00
33155;BME280;19511;42.682;23.332;2023-03-22T08:15:30;94967.91;;;9.54;100.00
33155;BME280;19511;42.682;23.332;2023-03-22T08:17:56;94982.41;;;9.65;100.00
33155;BME280;19511;42.682;23.332;2023-03-22T08:20:25;94979.53;;;9.76;100.00
33155;BME280;19511;42.682;23.332;2023-03-22T08:22:52;94972.84;;;9.73;100.00
33155;BME280;19511;42.682;23.332;2023-03-22T08:25:18;94985.44;;;9.78;100.00
33155;BME280;19511;42.682;23.332;2023-03-22T08:27:43;94977.56;;;9.76;100.00
33155;BME280;19511;42.682;23.332;2023-03-22T08:30:12;94985.34;;;9.85;100.00
33155;BME280;19511;42.682;23.332;2023-03-22T08:32:37;94990.03;;;9.92;100.00
33155;BME280;19511;42.682;23.332;2023-03-22T08:35:06;94988.88;;;9.89;100.00
33155;BME280;19511;42.682;23.332;2023-03-22T08:37:34;94990.03;;;9.92;100.00
33155;BME280;19511;42.682;23.332;2023-03-22T08:39:59;94997.19;;;9.89;100.00
33155;BME280;19511;42.682;23.332;2023-03-22T08:42:25;94982.25;;;9.79;100.00
33155;BME280;19511;42.682;23.332;2023-03-22T08:44:50;94989.72;;;9.83;100.00
33155;BME280;19511;42.682;23.332;2023-03-22T08:47:17;94979.50;;;9.79;100.00
33155;BME280;19511;42.682;23.332;2023-03-22T08:49:42;94988.53;;;9.84;100.00
33155;BME280;19511;42.682;23.332;2023-03-22T08:52:07;95000.97;;;10.03;100.00
33155;BME280;19511;42.682;23.332;2023-03-22T08:54:33;95000.94;;;10.06;100.00
33155;BME280;19511;42.682;23.332;2023-03-22T08:56:58;94948.34;;;9.79;100.00
33155;BME280;19511;42.682;23.332;2023-03-22T08:59:29;94989.19;;;9.99;100.00
33155;BME280;19511;42.682;23.332;2023-03-22T09:01:54;95004.84;;;10.12;100.00
33155;BME280;19511;42.682;23.332;2023-03-22T09:04:21;95006.31;;;10.21;100.00
33155;BME280;19511;42.682;23.332;2023-03-22T09:06:48;94999.28;;;10.16;100.00
33155;BME280;19511;42.682;23.332;2023-03-22T09:09:13;95007.16;;;10.18;100.00
33155;BME280;19511;42.682;23.332;2023-03-22T09:11:39;94917.31;;;9.64;100.00
33155;BME280;19511;42.682;23.332;2023-03-22T09:14:07;94915.47;;;9.54;100.00
33155;BME280;19511;42.682;23.332;2023-03-22T09:16:32;95004.56;;;10.00;100.00
33155;BME280;19511;42.682;23.332;2023-03-22T09:18:58;95000.63;;;10.01;100.00
33155;BME280;19511;42.682;23.332;2023-03-22T09:21:23;95012.75;;;10.10;100.00
33155;BME280;19511;42.682;23.332;2023-03-22T09:23:49;95006.50;;;10.03;100.00
33155;BME280;19511;42.682;23.332;2023-03-22T09:26:15;95024.94;;;10.13;100.00
33155;BME280;19511;42.682;23.332;2023-03-22T09:28:41;95020.69;;;10.08;100.00
33155;BME280;19511;42.682;23.332;2023-03-22T09:31:09;95018.28;;;10.10;100.00
33155;BME280;19511;42.682;23.332;2023-03-22T09:33:37;95009.66;;;10.05;100.00
33155;BME280;19511;42.682;23.332;2023-03-22T09:36:08;94944.97;;;9.60;100.00
33155;BME280;19511;42.682;23.332;2023-03-22T09:38:34;94995.59;;;9.88;100.00
33155;BME280;19511;42.682;23.332;2023-03-22T09:41:05;95014.09;;;9.95;100.00
33155;BME280;19511;42.682;23.332;2023-03-22T09:43:35;95022.84;;;9.86;100.00
33155;BME280;19511;42.682;23.332;2023-03-22T09:46:04;95018.88;;;9.91;100.00
33155;BME280;19511;42.682;23.332;2023-03-22T09:48:32;95006.63;;;9.92;100.00
33155;BME280;19511;42.682;23.332;2023-03-22T09:51:01;95007.50;;;9.82;100.00
33155;BME280;19511;42.682;23.332;2023-03-22T09:53:28;95021.63;;;9.91;100.00
33155;BME280;19511;42.682;23.332;2023-03-22T09:58:34;95025.97;;;9.92;100.00
33155;BME280;19511;42.682;23.332;2023-03-22T10:04:03;94959.94;;;9.63;100.00
33155;BME280;19511;42.682;23.332;2023-03-22T10:06:30;95002.59;;;10.00;100.00
33155;BME280;19511;42.682;23.332;2023-03-22T10:14:49;95028.09;;;10.15;100.00
33155;BME280;19511;42.682;23.332;2023-03-22T10:17:22;95005.72;;;10.02;100.00
33155;BME280;19511;42.682;23.332;2023-03-22T10:20:04;94943.88;;;9.51;100.00
33155;BME280;19511;42.682;23.332;2023-03-22T10:22:36;94972.53;;;9.68;100.00
33155;BME280;19511;42.682;23.332;2023-03-22T10:25:05;95028.56;;;10.10;100.00
33155;BME280;19511;42.682;23.332;2023-03-22T10:27:32;95020.78;;;9.97;100.00
33155;BME280;19511;42.682;23.332;2023-03-22T10:29:59;94944.94;;;9.64;100.00
33155;BME280;19511;42.682;23.332;2023-03-22T10:32:35;95022.66;;;10.04;100.00
33155;BME280;19511;42.682;23.332;2023-03-22T10:35:03;95025.78;;;10.10;100.00
33155;BME280;19511;42.682;23.332;2023-03-22T10:37:36;95022.16;;;10.17;100.00
33155;BME280;19511;42.682;23.332;2023-03-22T10:40:14;95023.44;;;10.08;100.00
33155;BME280;19511;42.682;23.332;2023-03-22T10:42:49;95021.00;;;10.14;100.00
33155;BME280;19511;42.682;23.332;2023-03-22T10:45:16;95029.91;;;10.33;100.00
33155;BME280;19511;42.682;23.332;2023-03-22T10:47:46;95021.03;;;10.10;100.00
33155;BME280;19511;42.682;23.332;2023-03-22T10:50:21;95012.75;;;10.10;100.00
33155;BME280;19511;42.682;23.332;2023-03-22T10:53:02;95026.13;;;10.16;100.00
33155;BME280;19511;42.682;23.332;2023-03-22T10:55:29;94973.56;;;9.81;100.00
33155;BME280;19511;42.682;23.332;2023-03-22T11:00:51;95017.03;;;10.15;100.00
33155;BME280;19511;42.682;23.332;2023-03-22T11:06:13;95011.41;;;10.26;100.00
33155;BME280;19511;42.682;23.332;2023-03-22T11:08:49;95006.88;;;10.47;100.00
33155;BME280;19511;42.682;23.332;2023-03-22T11:11:20;95017.09;;;10.50;100.00
33155;BME280;19511;42.682;23.332;2023-03-22T11:16:20;94999.91;;;10.31;100.00
33155;BME280;19511;42.682;23.332;2023-03-22T11:18:46;95009.38;;;10.30;100.00
33155;BME280;19511;42.682;23.332;2023-03-22T11:21:14;95010.50;;;10.40;100.00
33155;BME280;19511;42.682;23.332;2023-03-22T11:24:04;95008.47;;;10.44;100.00
33155;BME280;19511;42.682;23.332;2023-03-22T11:26:36;94996.25;;;10.41;100.00
33155;BME280;19511;42.682;23.332;2023-03-22T11:29:18;94939.47;;;9.95;100.00
33155;BME280;19511;42.682;23.332;2023-03-22T11:31:55;95008.94;;;10.35;100.00
33155;BME280;19511;42.682;23.332;2023-03-22T11:34:23;95001.41;;;10.39;100.00
33155;BME280;19511;42.682;23.332;2023-03-22T11:36:53;95001.84;;;10.34;100.00
33155;BME280;19511;42.682;23.332;2023-03-22T11:39:23;94993.38;;;10.14;100.00
33155;BME280;19511;42.682;23.332;2023-03-22T11:41:51;94981.63;;;10.03;100.00
33155;BME280;19511;42.682;23.332;2023-03-22T11:44:23;95006.69;;;10.23;100.00
33155;BME280;19511;42.682;23.332;2023-03-22T11:46:54;95001.44;;;10.32;100.00
33155;BME280;19511;42.682;23.332;2023-03-22T11:49:25;94999.81;;;10.42;100.00
33155;BME280;19511;42.682;23.332;2023-03-22T11:51:53;94996.72;;;10.33;100.00
33155;BME280;19511;42.682;23.332;2023-03-22T11:54:28;94996.63;;;10.43;100.00
33155;BME280;19511;42.682;23.332;2023-03-22T11:56:59;94988.00;;;10.34;100.00
33155;BME280;19511;42.682;23.332;2023-03-22T11:59:38;94918.06;;;9.68;100.00
33155;BME280;19511;42.682;23.332;2023-03-22T12:02:04;95010.38;;;10.12;100.00
33155;BME280;19511;42.682;23.332;2023-03-22T12:04:42;95008.09;;;10.00;100.00
33155;BME280;19511;42.682;23.332;2023-03-22T12:07:16;94993.22;;;9.90;100.00
33155;BME280;19511;42.682;23.332;2023-03-22T12:10:03;94971.41;;;9.61;100.00
33155;BME280;19511;42.682;23.332;2023-03-22T12:12:35;95008.19;;;9.93;100.00
33155;BME280;19511;42.682;23.332;2023-03-22T12:15:22;95011.28;;;9.99;100.00
33155;BME280;19511;42.682;23.332;2023-03-22T12:18:09;95005.09;;;9.87;100.00
33155;BME280;19511;42.682;23.332;2023-03-22T12:20:46;95007.34;;;10.00;100.00
33155;BME280;19511;42.682;23.332;2023-03-22T12:23:15;94982.00;;;10.08;100.00
33155;BME280;19511;42.682;23.332;2023-03-22T12:25:47;94925.44;;;9.78;100.00
33155;BME280;19511;42.682;23.332;2023-03-22T12:28:17;94981.75;;;10.30;100.00
33155;BME280;19511;42.682;23.332;2023-03-22T12:30:50;94997.38;;;10.48;100.00
33155;BME280;19511;42.682;23.332;2023-03-22T12:33:24;94984.28;;;10.52;100.00
33155;BME280;19511;42.682;23.332;2023-03-22T12:35:55;94965.94;;;10.30;100.00
33155;BME280;19511;42.682;23.332;2023-03-22T12:40:50;94998.84;;;10.87;100.00
33155;BME280;19511;42.682;23.332;2023-03-22T12:43:51;94976.47;;;10.74;100.00
33155;BME280;19511;42.682;23.332;2023-03-22T12:46:30;94971.75;;;10.74;100.00
33155;BME280;19511;42.682;23.332;2023-03-22T12:49:16;94994.28;;;11.04;100.00
33155;BME280;19511;42.682;23.332;2023-03-22T12:51:46;94982.41;;;11.03;100.00
33155;BME280;19511;42.682;23.332;2023-03-22T12:54:14;94983.16;;;11.07;100.00
33155;BME280;19511;42.682;23.332;2023-03-22T12:56:42;94990.25;;;11.08;100.00
33155;BME280;19511;42.682;23.332;2023-03-22T12:59:19;94978.03;;;11.06;100.00
33155;BME280;19511;42.682;23.332;2023-03-22T13:01:52;94926.69;;;10.74;100.00
33155;BME280;19511;42.682;23.332;2023-03-22T13:19:57;94982.78;;;11.05;100.00
33155;BME280;19511;42.682;23.332;2023-03-22T13:27:59;94970.59;;;10.99;100.00
33155;BME280;19511;42.682;23.332;2023-03-22T13:33:19;94953.31;;;10.91;100.00
33155;BME280;19511;42.682;23.332;2023-03-22T13:38:26;94936.25;;;10.97;100.00
33155;BME280;19511;42.682;23.332;2023-03-22T13:41:20;94953.53;;;11.32;100.00
33155;BME280;19511;42.682;23.332;2023-03-22T13:51:25;94953.75;;;11.41;100.00
33155;BME280;19511;42.682;23.332;2023-03-22T13:54:08;94887.97;;;11.01;100.00
33155;BME280;19511;42.682;23.332;2023-03-22T13:59:10;94967.19;;;11.90;100.00
33155;BME280;19511;42.682;23.332;2023-03-22T14:01:41;94953.84;;;11.61;100.00
33155;BME280;19511;42.682;23.332;2023-03-22T14:04:15;94966.00;;;11.67;100.00
33155;BME280;19511;42.682;23.332;2023-03-22T14:07:04;94878.69;;;11.11;100.00
33155;BME280;19511;42.682;23.332;2023-03-22T14:09:41;94948.66;;;11.63;100.00
33155;BME280;19511;42.682;23.332;2023-03-22T14:14:45;94963.84;;;11.79;100.00
33155;BME280;19511;42.682;23.332;2023-03-22T14:17:25;94967.16;;;11.70;100.00
33155;BME280;19511;42.682;23.332;2023-03-22T14:19:55;94951.00;;;11.41;100.00
33155;BME280;19511;42.682;23.332;2023-03-22T14:22:30;94878.94;;;10.97;100.00
33155;BME280;19511;42.682;23.332;2023-03-22T14:24:58;94962.31;;;11.74;100.00
33155;BME280;19511;42.682;23.332;2023-03-22T14:27:25;94972.75;;;11.66;100.00
33155;BME280;19511;42.682;23.332;2023-03-22T14:29:51;94969.97;;;11.66;100.00
33155;BME280;19511;42.682;23.332;2023-03-22T14:32:20;94891.81;;;11.07;100.00
33155;BME280;19511;42.682;23.332;2023-03-22T14:34:51;94892.16;;;11.09;100.00